Terminal Aerodrome Forecast
Issued by NWS Shreveport, LA

Home | Current Version | Previous Version | Text Only | Print | Product List | Glossary On
Versions: 1 2 3 4 5 6 7 8 9 10 11 12 13 14 15 16
000
FTUS44 KSHV 010500 RRA
TAFTYR
TAF
KTYR 010550Z 0106/0206 15011G18KT P6SM VCSH OVC020
      TEMPO 0106/0110 5SM -RA BR OVC015
     FM011400 21013G22KT 5SM -TSRA BR OVC020CB
     FM011800 25013G22KT 5SM BR VCTS OVC020CB
     FM012000 32015G25KT 5SM -RA BR OVC020
     FM020000 32015G25KT P6SM BKN100=

USA.gov is the U.S. government's official web portal to all federal, state and local government web resources and services.